Main page
METAR-TAF:

METAR-TAF

Airports :

Belize City, Belize

Philip S. W. Goldson International Airport

latitude: 17-32N, longitude: 088-18W, elevation: 5 m

Current weather observation

The report was made 27 minutes ago, at 01:00 UTC
Wind 7 kt from the East
Temperature 27°C
Humidity 84%
Pressure 342 hPa
Visibility 10 km or more
Scattered clouds at a height of 2000 ft

METAR: MZBZ 290100Z 10007KT 9999 SCT020 27/24 A2986 A1011 NOSIG

Time: 19:27 (01:27 UTC)

Forecast

The report was made 4 hours and 27 minutes ago, at 21:00 UTC
Forecast valid from 29 at 00 UTC to 29 at 24 UTC
Wind 7 kt from the East/Southeast
Visibility 10 km or more
Scattered clouds at a height of 2300 ft

TAF: MZBZ 282100Z 2900/2924 11007KT 9999 SCT023

Weather observations and forecasts of more than 4000 airports (METAR and TAF reports).

The available stations are represented by yellow and red dots on the map.

Hover mouse over dot to see the name of the station.

Then click to see weather observations and forecasts.

To change the map : click on the green buttons with a black cross to zoom in, on the green button with a dash to zoom out, or on the green arrows for adjacent maps.


METAR-TAF: